sensor_id;sensor_type;location;lat;lon;timestamp;pressure;altitude;pressure_sealevel;temperature;humidity
70488;BME280;57976;48.174;16.370;2023-05-11T00:00:08;99131.64;;;16.05;53.84
70488;BME280;57976;48.174;16.370;2023-05-11T00:02:13;99130.95;;;16.06;53.81
70488;BME280;57976;48.174;16.370;2023-05-11T00:04:18;99128.52;;;16.08;53.85
70488;BME280;57976;48.174;16.370;2023-05-11T00:06:23;99126.00;;;16.08;53.74
70488;BME280;57976;48.174;16.370;2023-05-11T00:08:28;99127.42;;;16.10;53.82
70488;BME280;57976;48.174;16.370;2023-05-11T00:10:33;99123.79;;;16.11;53.90
70488;BME280;57976;48.174;16.370;2023-05-11T00:12:38;99122.80;;;16.10;53.80
70488;BME280;57976;48.174;16.370;2023-05-11T00:14:43;99125.33;;;16.10;53.89
70488;BME280;57976;48.174;16.370;2023-05-11T00:16:48;99125.54;;;16.13;53.78
70488;BME280;57976;48.174;16.370;2023-05-11T00:18:53;99126.14;;;16.16;53.78
70488;BME280;57976;48.174;16.370;2023-05-11T00:20:58;99127.12;;;16.17;53.86
70488;BME280;57976;48.174;16.370;2023-05-11T00:23:03;99123.70;;;16.16;53.90
70488;BME280;57976;48.174;16.370;2023-05-11T00:25:09;99125.75;;;16.15;54.05
70488;BME280;57976;48.174;16.370;2023-05-11T00:27:13;99127.08;;;16.15;53.97
70488;BME280;57976;48.174;16.370;2023-05-11T00:29:18;99128.14;;;16.17;54.00
70488;BME280;57976;48.174;16.370;2023-05-11T00:31:23;99126.38;;;16.20;53.96
70488;BME280;57976;48.174;16.370;2023-05-11T00:33:28;99122.27;;;16.22;54.00
70488;BME280;57976;48.174;16.370;2023-05-11T00:35:33;99126.23;;;16.21;53.86
70488;BME280;57976;48.174;16.370;2023-05-11T00:37:38;99124.83;;;16.18;54.04
70488;BME280;57976;48.174;16.370;2023-05-11T00:39:43;99124.28;;;16.14;54.01
70488;BME280;57976;48.174;16.370;2023-05-11T00:41:48;99123.55;;;16.10;54.22
70488;BME280;57976;48.174;16.370;2023-05-11T00:43:52;99124.31;;;16.05;54.32
70488;BME280;57976;48.174;16.370;2023-05-11T00:45:57;99121.86;;;16.00;54.34
70488;BME280;57976;48.174;16.370;2023-05-11T00:48:02;99122.98;;;16.00;54.38
70488;BME280;57976;48.174;16.370;2023-05-11T00:50:09;99126.65;;;16.01;54.46
70488;BME280;57976;48.174;16.370;2023-05-11T00:52:14;99122.48;;;15.99;54.45
70488;BME280;57976;48.174;16.370;2023-05-11T00:54:19;99123.42;;;15.97;54.68
70488;BME280;57976;48.174;16.370;2023-05-11T00:56:23;99123.84;;;15.97;54.75
70488;BME280;57976;48.174;16.370;2023-05-11T00:58:28;99128.73;;;15.94;54.79
70488;BME280;57976;48.174;16.370;2023-05-11T01:00:34;99127.70;;;15.93;54.86
70488;BME280;57976;48.174;16.370;2023-05-11T01:04:32;99129.82;;;15.94;54.97
70488;BME280;57976;48.174;16.370;2023-05-11T01:06:43;99130.46;;;15.89;55.22
70488;BME280;57976;48.174;16.370;2023-05-11T01:08:51;99128.73;;;15.85;55.18
70488;BME280;57976;48.174;16.370;2023-05-11T01:11:04;99126.89;;;15.79;55.24
70488;BME280;57976;48.174;16.370;2023-05-11T01:13:16;99124.46;;;15.71;55.38
70488;BME280;57976;48.174;16.370;2023-05-11T01:15:28;99122.92;;;15.61;55.41
70488;BME280;57976;48.174;16.370;2023-05-11T01:17:40;99127.37;;;15.56;55.54
70488;BME280;57976;48.174;16.370;2023-05-11T01:20:02;99123.11;;;15.52;55.67
70488;BME280;57976;48.174;16.370;2023-05-11T01:22:18;99122.20;;;15.49;55.63
70488;BME280;57976;48.174;16.370;2023-05-11T01:24:35;99123.06;;;15.46;55.92
70488;BME280;57976;48.174;16.370;2023-05-11T01:26:53;99121.19;;;15.44;55.72
70488;BME280;57976;48.174;16.370;2023-05-11T01:29:37;99123.64;;;15.43;56.07
70488;BME280;57976;48.174;16.370;2023-05-11T01:31:47;99120.88;;;15.45;56.27
70488;BME280;57976;48.174;16.370;2023-05-11T01:33:56;99121.23;;;15.44;56.26
70488;BME280;57976;48.174;16.370;2023-05-11T01:36:05;99121.22;;;15.42;56.15
70488;BME280;57976;48.174;16.370;2023-05-11T01:38:13;99122.11;;;15.40;56.30
70488;BME280;57976;48.174;16.370;2023-05-11T01:40:24;99126.86;;;15.42;56.38
70488;BME280;57976;48.174;16.370;2023-05-11T01:42:34;99127.14;;;15.44;56.55
70488;BME280;57976;48.174;16.370;2023-05-11T01:44:42;99123.92;;;15.46;56.60
70488;BME280;57976;48.174;16.370;2023-05-11T01:46:49;99125.42;;;15.46;56.55
70488;BME280;57976;48.174;16.370;2023-05-11T01:48:56;99128.59;;;15.46;56.50
70488;BME280;57976;48.174;16.370;2023-05-11T01:51:03;99126.88;;;15.47;56.51
70488;BME280;57976;48.174;16.370;2023-05-11T01:53:09;99129.36;;;15.47;56.44
70488;BME280;57976;48.174;16.370;2023-05-11T01:55:18;99127.38;;;15.47;56.57
70488;BME280;57976;48.174;16.370;2023-05-11T01:57:25;99126.64;;;15.47;56.58
70488;BME280;57976;48.174;16.370;2023-05-11T01:59:32;99129.70;;;15.45;56.83
70488;BME280;57976;48.174;16.370;2023-05-11T02:01:39;99130.01;;;15.38;57.21
70488;BME280;57976;48.174;16.370;2023-05-11T02:03:46;99128.52;;;15.34;57.34
70488;BME280;57976;48.174;16.370;2023-05-11T02:05:54;99132.56;;;15.27;57.73
70488;BME280;57976;48.174;16.370;2023-05-11T02:08:02;99131.99;;;15.21;57.91
70488;BME280;57976;48.174;16.370;2023-05-11T02:10:10;99132.76;;;15.17;58.00
70488;BME280;57976;48.174;16.370;2023-05-11T02:12:17;99135.48;;;15.14;58.28
70488;BME280;57976;48.174;16.370;2023-05-11T02:14:24;99131.70;;;15.12;58.39
70488;BME280;57976;48.174;16.370;2023-05-11T02:16:31;99133.77;;;15.12;58.73
70488;BME280;57976;48.174;16.370;2023-05-11T02:18:39;99133.80;;;15.13;58.64
70488;BME280;57976;48.174;16.370;2023-05-11T02:20:45;99134.13;;;15.14;58.77
70488;BME280;57976;48.174;16.370;2023-05-11T02:22:52;99133.66;;;15.15;58.86
70488;BME280;57976;48.174;16.370;2023-05-11T02:24:57;99135.63;;;15.14;58.76
70488;BME280;57976;48.174;16.370;2023-05-11T02:27:02;99133.06;;;15.14;58.82
70488;BME280;57976;48.174;16.370;2023-05-11T02:29:08;99137.11;;;15.10;59.16
70488;BME280;57976;48.174;16.370;2023-05-11T02:31:18;99133.94;;;15.07;59.20
70488;BME280;57976;48.174;16.370;2023-05-11T02:33:26;99135.08;;;15.06;59.53
70488;BME280;57976;48.174;16.370;2023-05-11T02:35:36;99137.41;;;15.02;59.61
70488;BME280;57976;48.174;16.370;2023-05-11T02:37:44;99134.38;;;14.94;59.95
70488;BME280;57976;48.174;16.370;2023-05-11T02:39:54;99138.34;;;14.87;60.08
70488;BME280;57976;48.174;16.370;2023-05-11T02:42:08;99137.33;;;14.83;60.37
70488;BME280;57976;48.174;16.370;2023-05-11T02:44:15;99136.68;;;14.81;60.42
70488;BME280;57976;48.174;16.370;2023-05-11T02:46:25;99137.05;;;14.81;60.40
70488;BME280;57976;48.174;16.370;2023-05-11T02:48:33;99137.02;;;14.81;60.62
70488;BME280;57976;48.174;16.370;2023-05-11T02:50:41;99138.23;;;14.82;60.53
70488;BME280;57976;48.174;16.370;2023-05-11T02:52:47;99137.64;;;14.85;60.51
70488;BME280;57976;48.174;16.370;2023-05-11T02:54:53;99134.28;;;14.88;60.46
70488;BME280;57976;48.174;16.370;2023-05-11T02:56:58;99137.92;;;14.87;60.63
70488;BME280;57976;48.174;16.370;2023-05-11T02:59:03;99134.95;;;14.86;60.84
70488;BME280;57976;48.174;16.370;2023-05-11T03:01:08;99138.23;;;14.89;60.80
70488;BME280;57976;48.174;16.370;2023-05-11T03:03:13;99138.07;;;14.91;60.87
70488;BME280;57976;48.174;16.370;2023-05-11T03:05:18;99141.19;;;14.92;60.80
70488;BME280;57976;48.174;16.370;2023-05-11T03:07:23;99144.67;;;14.91;60.95
70488;BME280;57976;48.174;16.370;2023-05-11T03:09:31;99142.02;;;14.89;61.05
70488;BME280;57976;48.174;16.370;2023-05-11T03:11:37;99137.90;;;14.86;60.87
70488;BME280;57976;48.174;16.370;2023-05-11T03:13:43;99138.55;;;14.85;61.18
70488;BME280;57976;48.174;16.370;2023-05-11T03:15:48;99140.19;;;14.88;61.25
70488;BME280;57976;48.174;16.370;2023-05-11T03:17:55;99137.43;;;14.89;61.30
70488;BME280;57976;48.174;16.370;2023-05-11T03:20:00;99139.95;;;14.89;61.42
70488;BME280;57976;48.174;16.370;2023-05-11T03:22:06;99134.82;;;14.86;61.30
70488;BME280;57976;48.174;16.370;2023-05-11T03:24:12;99131.01;;;14.84;61.59
70488;BME280;57976;48.174;16.370;2023-05-11T03:26:17;99130.83;;;14.80;61.64
70488;BME280;57976;48.174;16.370;2023-05-11T03:28:23;99134.02;;;14.79;61.63
70488;BME280;57976;48.174;16.370;2023-05-11T03:30:38;99130.83;;;14.80;61.87
70488;BME280;57976;48.174;16.370;2023-05-11T03:32:43;99131.09;;;14.80;61.61
70488;BME280;57976;48.174;16.370;2023-05-11T03:34:48;99130.48;;;14.77;61.84
70488;BME280;57976;48.174;16.370;2023-05-11T03:36:54;99130.28;;;14.78;61.65
70488;BME280;57976;48.174;16.370;2023-05-11T03:39:02;99129.25;;;14.79;61.98
70488;BME280;57976;48.174;16.370;2023-05-11T03:41:09;99123.70;;;14.80;61.96
70488;BME280;57976;48.174;16.370;2023-05-11T03:43:18;99123.70;;;14.82;61.70
70488;BME280;57976;48.174;16.370;2023-05-11T03:45:26;99124.38;;;14.84;61.76
70488;BME280;57976;48.174;16.370;2023-05-11T03:47:33;99122.25;;;14.85;62.02
70488;BME280;57976;48.174;16.370;2023-05-11T03:49:39;99121.83;;;14.90;61.97
70488;BME280;57976;48.174;16.370;2023-05-11T03:51:45;99123.42;;;14.91;61.79
70488;BME280;57976;48.174;16.370;2023-05-11T03:53:50;99127.59;;;14.93;61.56
70488;BME280;57976;48.174;16.370;2023-05-11T03:55:56;99125.92;;;14.92;61.85
70488;BME280;57976;48.174;16.370;2023-05-11T03:58:01;99125.63;;;14.94;61.65
70488;BME280;57976;48.174;16.370;2023-05-11T04:00:10;99124.89;;;14.92;61.69
70488;BME280;57976;48.174;16.370;2023-05-11T04:02:21;99122.55;;;14.96;61.51
70488;BME280;57976;48.174;16.370;2023-05-11T04:04:30;99125.28;;;14.95;61.45
70488;BME280;57976;48.174;16.370;2023-05-11T04:06:35;99129.48;;;14.96;61.39
70488;BME280;57976;48.174;16.370;2023-05-11T04:08:50;99127.48;;;14.97;61.26
70488;BME280;57976;48.174;16.370;2023-05-11T04:10:57;99124.93;;;15.01;61.28
70488;BME280;57976;48.174;16.370;2023-05-11T04:13:02;99127.83;;;15.03;61.09
70488;BME280;57976;48.174;16.370;2023-05-11T04:15:08;99127.89;;;15.01;61.26
70488;BME280;57976;48.174;16.370;2023-05-11T04:17:12;99128.70;;;15.02;61.39
70488;BME280;57976;48.174;16.370;2023-05-11T04:19:17;99130.77;;;14.99;61.11
70488;BME280;57976;48.174;16.370;2023-05-11T04:21:22;99130.34;;;14.98;61.00
70488;BME280;57976;48.174;16.370;2023-05-11T04:23:27;99134.20;;;15.00;60.95
70488;BME280;57976;48.174;16.370;2023-05-11T04:25:31;99134.33;;;14.99;61.04
70488;BME280;57976;48.174;16.370;2023-05-11T04:27:37;99139.35;;;14.98;61.09
70488;BME280;57976;48.174;16.370;2023-05-11T04:29:42;99137.95;;;15.00;61.19
70488;BME280;57976;48.174;16.370;2023-05-11T04:31:47;99139.40;;;15.02;61.05
70488;BME280;57976;48.174;16.370;2023-05-11T04:33:51;99141.38;;;15.04;61.09
70488;BME280;57976;48.174;16.370;2023-05-11T04:35:56;99140.33;;;15.05;60.74
70488;BME280;57976;48.174;16.370;2023-05-11T04:38:01;99142.55;;;15.04;60.87
70488;BME280;57976;48.174;16.370;2023-05-11T04:40:08;99141.87;;;15.05;60.90
70488;BME280;57976;48.174;16.370;2023-05-11T04:42:17;99144.88;;;15.07;60.82
70488;BME280;57976;48.174;16.370;2023-05-11T04:44:26;99146.73;;;15.09;60.68
70488;BME280;57976;48.174;16.370;2023-05-11T04:46:30;99146.20;;;15.09;60.70
70488;BME280;57976;48.174;16.370;2023-05-11T04:48:35;99143.98;;;15.10;60.40
70488;BME280;57976;48.174;16.370;2023-05-11T04:50:40;99146.62;;;15.15;60.38
70488;BME280;57976;48.174;16.370;2023-05-11T04:52:45;99149.39;;;15.19;60.37
70488;BME280;57976;48.174;16.370;2023-05-11T04:54:50;99149.02;;;15.24;60.13
70488;BME280;57976;48.174;16.370;2023-05-11T04:56:55;99147.26;;;15.32;60.45
70488;BME280;57976;48.174;16.370;2023-05-11T04:59:00;99146.81;;;15.40;60.25
70488;BME280;57976;48.174;16.370;2023-05-11T05:01:08;99146.21;;;15.47;60.65
70488;BME280;57976;48.174;16.370;2023-05-11T05:03:12;99144.67;;;15.45;60.03
70488;BME280;57976;48.174;16.370;2023-05-11T05:05:17;99148.36;;;15.44;59.99
70488;BME280;57976;48.174;16.370;2023-05-11T05:07:22;99149.09;;;15.43;59.97
70488;BME280;57976;48.174;16.370;2023-05-11T05:09:27;99150.64;;;15.39;59.95
70488;BME280;57976;48.174;16.370;2023-05-11T05:11:31;99153.83;;;15.40;60.23
70488;BME280;57976;48.174;16.370;2023-05-11T05:13:36;99150.91;;;15.45;60.36
70488;BME280;57976;48.174;16.370;2023-05-11T05:15:41;99152.77;;;15.55;60.28
70488;BME280;57976;48.174;16.370;2023-05-11T05:17:46;99157.64;;;15.65;60.00
70488;BME280;57976;48.174;16.370;2023-05-11T05:19:51;99159.77;;;15.74;59.71
70488;BME280;57976;48.174;16.370;2023-05-11T05:21:56;99162.97;;;15.78;59.45
70488;BME280;57976;48.174;16.370;2023-05-11T05:24:01;99161.39;;;15.85;59.36
70488;BME280;57976;48.174;16.370;2023-05-11T05:26:06;99167.11;;;15.86;59.21
70488;BME280;57976;48.174;16.370;2023-05-11T05:28:12;99164.27;;;15.87;59.19
70488;BME280;57976;48.174;16.370;2023-05-11T05:30:17;99162.83;;;15.93;59.20
70488;BME280;57976;48.174;16.370;2023-05-11T05:32:22;99163.92;;;15.99;59.29
70488;BME280;57976;48.174;16.370;2023-05-11T05:34:27;99163.60;;;16.05;58.81
70488;BME280;57976;48.174;16.370;2023-05-11T05:36:32;99165.36;;;16.10;58.88
70488;BME280;57976;48.174;16.370;2023-05-11T05:38:36;99166.13;;;16.14;59.01
70488;BME280;57976;48.174;16.370;2023-05-11T05:40:41;99165.86;;;16.16;58.52
70488;BME280;57976;48.174;16.370;2023-05-11T05:42:46;99167.80;;;16.19;58.46
70488;BME280;57976;48.174;16.370;2023-05-11T05:44:55;99168.42;;;16.24;58.24
70488;BME280;57976;48.174;16.370;2023-05-11T05:47:00;99167.96;;;16.31;58.12
70488;BME280;57976;48.174;16.370;2023-05-11T05:49:08;99170.55;;;16.35;57.92
70488;BME280;57976;48.174;16.370;2023-05-11T05:51:14;99169.83;;;16.37;57.71
70488;BME280;57976;48.174;16.370;2023-05-11T05:53:18;99171.83;;;16.39;57.68
70488;BME280;57976;48.174;16.370;2023-05-11T05:55:23;99174.86;;;16.43;57.57
70488;BME280;57976;48.174;16.370;2023-05-11T05:57:28;99174.73;;;16.45;57.35
70488;BME280;57976;48.174;16.370;2023-05-11T05:59:33;99177.63;;;16.52;57.47
70488;BME280;57976;48.174;16.370;2023-05-11T06:01:38;99181.36;;;16.57;57.37
70488;BME280;57976;48.174;16.370;2023-05-11T06:03:45;99184.02;;;16.63;57.19
70488;BME280;57976;48.174;16.370;2023-05-11T06:05:50;99181.23;;;16.68;56.97
70488;BME280;57976;48.174;16.370;2023-05-11T06:07:55;99183.98;;;16.71;56.69
70488;BME280;57976;48.174;16.370;2023-05-11T06:10:14;99184.51;;;16.70;55.99
70488;BME280;57976;48.174;16.370;2023-05-11T06:12:20;99184.15;;;16.68;55.88
70488;BME280;57976;48.174;16.370;2023-05-11T06:14:25;99188.05;;;16.66;55.60
70488;BME280;57976;48.174;16.370;2023-05-11T06:16:30;99187.79;;;16.67;55.86
70488;BME280;57976;48.174;16.370;2023-05-11T06:18:35;99186.17;;;16.68;55.66
70488;BME280;57976;48.174;16.370;2023-05-11T06:20:42;99185.79;;;16.70;55.60
70488;BME280;57976;48.174;16.370;2023-05-11T06:22:47;99187.36;;;16.74;55.59
70488;BME280;57976;48.174;16.370;2023-05-11T06:24:52;99187.43;;;16.78;55.52
70488;BME280;57976;48.174;16.370;2023-05-11T06:26:57;99190.69;;;16.83;55.69
70488;BME280;57976;48.174;16.370;2023-05-11T06:29:02;99194.23;;;16.89;55.91
70488;BME280;57976;48.174;16.370;2023-05-11T06:31:07;99191.54;;;16.96;55.72
70488;BME280;57976;48.174;16.370;2023-05-11T06:33:13;99192.21;;;16.99;55.69
70488;BME280;57976;48.174;16.370;2023-05-11T06:35:18;99194.27;;;17.02;55.38
70488;BME280;57976;48.174;16.370;2023-05-11T06:37:23;99192.09;;;17.04;55.04
70488;BME280;57976;48.174;16.370;2023-05-11T06:39:29;99192.05;;;17.02;55.48
70488;BME280;57976;48.174;16.370;2023-05-11T06:41:33;99192.74;;;17.08;55.69
70488;BME280;57976;48.174;16.370;2023-05-11T06:43:38;99197.73;;;17.16;55.29
70488;BME280;57976;48.174;16.370;2023-05-11T06:45:54;99195.38;;;17.14;54.46
70488;BME280;57976;48.174;16.370;2023-05-11T06:47:59;99195.48;;;17.06;54.86
70488;BME280;57976;48.174;16.370;2023-05-11T06:50:04;99193.76;;;17.08;54.88
70488;BME280;57976;48.174;16.370;2023-05-11T06:52:09;99195.95;;;17.03;54.28
70488;BME280;57976;48.174;16.370;2023-05-11T06:54:14;99195.95;;;17.00;55.12
70488;BME280;57976;48.174;16.370;2023-05-11T06:56:19;99196.23;;;17.07;55.02
70488;BME280;57976;48.174;16.370;2023-05-11T06:58:24;99193.55;;;17.15;54.62
70488;BME280;57976;48.174;16.370;2023-05-11T07:00:28;99196.08;;;17.21;54.40
70488;BME280;57976;48.174;16.370;2023-05-11T07:02:33;99191.80;;;17.27;54.18
70488;BME280;57976;48.174;16.370;2023-05-11T07:04:38;99189.18;;;17.36;53.55
70488;BME280;57976;48.174;16.370;2023-05-11T07:06:43;99187.88;;;17.38;53.14
70488;BME280;57976;48.174;16.370;2023-05-11T07:08:48;99184.92;;;17.39;52.83
70488;BME280;57976;48.174;16.370;2023-05-11T07:10:53;99182.10;;;17.42;53.01
70488;BME280;57976;48.174;16.370;2023-05-11T07:12:58;99182.81;;;17.49;52.94
70488;BME280;57976;48.174;16.370;2023-05-11T07:15:03;99179.67;;;17.54;52.62
70488;BME280;57976;48.174;16.370;2023-05-11T07:17:08;99180.38;;;17.60;52.58
70488;BME280;57976;48.174;16.370;2023-05-11T07:19:13;99180.42;;;17.67;52.56
70488;BME280;57976;48.174;16.370;2023-05-11T07:21:18;99178.00;;;17.76;52.52
70488;BME280;57976;48.174;16.370;2023-05-11T07:23:23;99175.20;;;17.84;52.15
70488;BME280;57976;48.174;16.370;2023-05-11T07:25:31;99176.05;;;17.88;51.52
70488;BME280;57976;48.174;16.370;2023-05-11T07:27:35;99179.45;;;17.78;51.61
70488;BME280;57976;48.174;16.370;2023-05-11T07:29:40;99177.05;;;17.72;52.14
70488;BME280;57976;48.174;16.370;2023-05-11T07:31:45;99181.73;;;17.76;52.14
70488;BME280;57976;48.174;16.370;2023-05-11T07:33:50;99181.38;;;17.79;52.14
70488;BME280;57976;48.174;16.370;2023-05-11T07:35:55;99182.29;;;17.86;52.07
70488;BME280;57976;48.174;16.370;2023-05-11T07:38:00;99178.88;;;17.94;51.71
70488;BME280;57976;48.174;16.370;2023-05-11T07:40:07;99174.73;;;18.04;51.61
70488;BME280;57976;48.174;16.370;2023-05-11T07:42:12;99173.63;;;18.15;51.44
70488;BME280;57976;48.174;16.370;2023-05-11T07:44:17;99176.25;;;18.25;51.06
70488;BME280;57976;48.174;16.370;2023-05-11T07:46:22;99176.66;;;18.33;51.05
70488;BME280;57976;48.174;16.370;2023-05-11T07:48:27;99174.63;;;18.38;50.61
70488;BME280;57976;48.174;16.370;2023-05-11T07:52:36;99170.61;;;18.47;50.79
70488;BME280;57976;48.174;16.370;2023-05-11T07:54:41;99170.83;;;18.51;50.47
70488;BME280;57976;48.174;16.370;2023-05-11T07:56:46;99169.15;;;18.56;50.56
70488;BME280;57976;48.174;16.370;2023-05-11T07:58:51;99170.89;;;18.62;50.43
70488;BME280;57976;48.174;16.370;2023-05-11T08:00:56;99175.98;;;18.68;50.24
70488;BME280;57976;48.174;16.370;2023-05-11T08:03:01;99172.69;;;18.71;49.93
70488;BME280;57976;48.174;16.370;2023-05-11T08:05:08;99170.20;;;18.71;49.77
70488;BME280;57976;48.174;16.370;2023-05-11T08:07:13;99167.98;;;18.72;49.64
70488;BME280;57976;48.174;16.370;2023-05-11T08:09:18;99164.75;;;18.72;49.57
70488;BME280;57976;48.174;16.370;2023-05-11T08:11:23;99167.04;;;18.73;49.59
70488;BME280;57976;48.174;16.370;2023-05-11T08:13:28;99167.93;;;18.77;49.62
70488;BME280;57976;48.174;16.370;2023-05-11T08:15:32;99173.29;;;18.85;49.60
70488;BME280;57976;48.174;16.370;2023-05-11T08:17:37;99170.88;;;18.89;49.48
70488;BME280;57976;48.174;16.370;2023-05-11T08:19:43;99166.84;;;18.91;49.30
70488;BME280;57976;48.174;16.370;2023-05-11T08:21:48;99170.38;;;18.93;49.40
70488;BME280;57976;48.174;16.370;2023-05-11T08:23:52;99171.20;;;18.97;49.40
70488;BME280;57976;48.174;16.370;2023-05-11T08:25:57;99167.78;;;18.99;49.47
70488;BME280;57976;48.174;16.370;2023-05-11T08:28:02;99167.08;;;19.06;49.61
70488;BME280;57976;48.174;16.370;2023-05-11T08:30:09;99168.41;;;19.13;49.40
70488;BME280;57976;48.174;16.370;2023-05-11T08:32:15;99169.23;;;19.14;49.28
70488;BME280;57976;48.174;16.370;2023-05-11T08:34:20;99168.70;;;19.22;49.31
70488;BME280;57976;48.174;16.370;2023-05-11T08:36:25;99166.38;;;19.31;49.08
70488;BME280;57976;48.174;16.370;2023-05-11T08:38:30;99162.58;;;19.41;48.89
70488;BME280;57976;48.174;16.370;2023-05-11T08:40:35;99157.70;;;19.48;48.64
70488;BME280;57976;48.174;16.370;2023-05-11T08:42:41;99158.27;;;19.55;48.28
70488;BME280;57976;48.174;16.370;2023-05-11T08:44:49;99159.63;;;19.57;47.94
70488;BME280;57976;48.174;16.370;2023-05-11T08:46:56;99160.98;;;19.59;48.17
70488;BME280;57976;48.174;16.370;2023-05-11T08:49:22;99154.86;;;19.66;47.84
70488;BME280;57976;48.174;16.370;2023-05-11T08:51:27;99149.96;;;19.71;48.01
70488;BME280;57976;48.174;16.370;2023-05-11T08:53:32;99150.79;;;19.74;47.81
70488;BME280;57976;48.174;16.370;2023-05-11T08:55:38;99145.98;;;19.76;47.18
70488;BME280;57976;48.174;16.370;2023-05-11T08:57:44;99147.15;;;19.71;45.96
70488;BME280;57976;48.174;16.370;2023-05-11T08:59:51;99145.40;;;19.68;46.64
70488;BME280;57976;48.174;16.370;2023-05-11T09:01:57;99140.55;;;19.69;46.87
70488;BME280;57976;48.174;16.370;2023-05-11T09:04:04;99140.36;;;19.73;46.57
70488;BME280;57976;48.174;16.370;2023-05-11T09:06:11;99135.67;;;19.79;46.19
70488;BME280;57976;48.174;16.370;2023-05-11T09:08:18;99132.81;;;19.83;46.02
70488;BME280;57976;48.174;16.370;2023-05-11T09:10:24;99134.51;;;19.88;45.54
70488;BME280;57976;48.174;16.370;2023-05-11T09:12:29;99132.15;;;19.95;45.61
70488;BME280;57976;48.174;16.370;2023-05-11T09:14:34;99130.32;;;20.01;45.29
70488;BME280;57976;48.174;16.370;2023-05-11T09:16:39;99130.45;;;20.06;45.21
70488;BME280;57976;48.174;16.370;2023-05-11T09:18:50;99131.77;;;20.14;45.04
70488;BME280;57976;48.174;16.370;2023-05-11T09:20:55;99130.02;;;20.22;44.85
70488;BME280;57976;48.174;16.370;2023-05-11T09:23:01;99130.59;;;20.29;44.57
70488;BME280;57976;48.174;16.370;2023-05-11T09:25:06;99126.90;;;20.33;43.79
70488;BME280;57976;48.174;16.370;2023-05-11T09:27:14;99128.64;;;20.39;43.03
70488;BME280;57976;48.174;16.370;2023-05-11T09:29:25;99128.33;;;20.43;42.52
70488;BME280;57976;48.174;16.370;2023-05-11T09:31:38;99124.91;;;20.48;42.77
70488;BME280;57976;48.174;16.370;2023-05-11T09:33:43;99118.48;;;20.57;42.83
70488;BME280;57976;48.174;16.370;2023-05-11T09:35:48;99121.73;;;20.66;42.81
70488;BME280;57976;48.174;16.370;2023-05-11T09:38:02;99120.31;;;20.77;42.45
70488;BME280;57976;48.174;16.370;2023-05-11T09:40:11;99122.96;;;20.87;42.61
70488;BME280;57976;48.174;16.370;2023-05-11T09:42:20;99120.62;;;20.94;41.59
70488;BME280;57976;48.174;16.370;2023-05-11T09:44:31;99118.13;;;21.00;41.24
70488;BME280;57976;48.174;16.370;2023-05-11T09:46:37;99121.17;;;21.04;40.92
70488;BME280;57976;48.174;16.370;2023-05-11T09:48:42;99121.81;;;21.11;41.12
70488;BME280;57976;48.174;16.370;2023-05-11T09:50:48;99119.75;;;21.19;41.04
70488;BME280;57976;48.174;16.370;2023-05-11T09:52:53;99117.61;;;21.29;40.82
70488;BME280;57976;48.174;16.370;2023-05-11T09:54:58;99116.55;;;21.36;40.92
70488;BME280;57976;48.174;16.370;2023-05-11T09:57:27;99113.39;;;21.41;40.80
70488;BME280;57976;48.174;16.370;2023-05-11T09:59:39;99114.38;;;21.40;40.18
70488;BME280;57976;48.174;16.370;2023-05-11T10:01:44;99111.80;;;21.29;39.92
70488;BME280;57976;48.174;16.370;2023-05-11T10:03:51;99111.55;;;21.21;39.86
70488;BME280;57976;48.174;16.370;2023-05-11T10:06:01;99112.48;;;21.17;39.87
70488;BME280;57976;48.174;16.370;2023-05-11T10:08:06;99109.66;;;21.17;40.25
70488;BME280;57976;48.174;16.370;2023-05-11T10:10:12;99104.41;;;21.19;40.18
70488;BME280;57976;48.174;16.370;2023-05-11T10:12:17;99104.29;;;21.22;40.07
70488;BME280;57976;48.174;16.370;2023-05-11T10:14:25;99105.33;;;21.23;39.91
70488;BME280;57976;48.174;16.370;2023-05-11T10:16:31;99104.17;;;21.26;39.94
70488;BME280;57976;48.174;16.370;2023-05-11T10:18:36;99102.05;;;21.29;40.12
70488;BME280;57976;48.174;16.370;2023-05-11T10:20:41;99095.87;;;21.31;40.04
70488;BME280;57976;48.174;16.370;2023-05-11T10:22:47;99095.54;;;21.34;39.89
70488;BME280;57976;48.174;16.370;2023-05-11T10:24:54;99093.80;;;21.33;39.41
70488;BME280;57976;48.174;16.370;2023-05-11T10:27:00;99093.05;;;21.30;39.29
70488;BME280;57976;48.174;16.370;2023-05-11T10:29:09;99081.91;;;21.35;39.09
70488;BME280;57976;48.174;16.370;2023-05-11T10:31:15;99079.19;;;21.41;38.99
70488;BME280;57976;48.174;16.370;2023-05-11T10:33:20;99082.91;;;21.42;38.76
70488;BME280;57976;48.174;16.370;2023-05-11T10:35:26;99074.52;;;21.45;38.80
70488;BME280;57976;48.174;16.370;2023-05-11T10:37:32;99074.35;;;21.46;39.15
70488;BME280;57976;48.174;16.370;2023-05-11T10:39:38;99070.57;;;21.51;39.36
70488;BME280;57976;48.174;16.370;2023-05-11T10:41:50;99072.90;;;21.56;39.03
70488;BME280;57976;48.174;16.370;2023-05-11T10:46:50;99076.23;;;21.58;38.76
70488;BME280;57976;48.174;16.370;2023-05-11T10:49:22;99069.30;;;21.58;38.34
70488;BME280;57976;48.174;16.370;2023-05-11T10:51:45;99061.60;;;21.59;38.57
70488;BME280;57976;48.174;16.370;2023-05-11T10:54:07;99066.05;;;21.60;38.52
70488;BME280;57976;48.174;16.370;2023-05-11T10:56:29;99065.52;;;21.56;39.20
70488;BME280;57976;48.174;16.370;2023-05-11T10:58:47;99061.08;;;21.43;39.38
70488;BME280;57976;48.174;16.370;2023-05-11T11:01:30;99066.58;;;21.23;39.76
70488;BME280;57976;48.174;16.370;2023-05-11T11:03:38;99059.88;;;21.03;40.01
70488;BME280;57976;48.174;16.370;2023-05-11T11:05:43;99061.14;;;20.95;40.49
70488;BME280;57976;48.174;16.370;2023-05-11T11:08:01;99061.63;;;20.96;40.59
70488;BME280;57976;48.174;16.370;2023-05-11T11:10:08;99061.69;;;20.99;40.24